KEYW/EYW METAR and TAF weather

Enter ICAO airport designator
Station Type Date Time Source
KEYW METAR 2019/04/19 07:53 UTC NOAA

KEYW 190753Z AUTO 15017KT 10SM CLR 26/23 A2988 RMK AO2 SLP118 T02610233


Station Type Date Time Source
KEYW Decoded METAR 2019/04/19 07:53 UTC NOAA

KEY WEST INTERNATIONAL AIRPORT , FL, United States (KEYW) 24-33N 81-46W 5M
Apr 19, 2019 - 03:53 AM EDT / 2019.04.19 0753 UTC
Wind: from the SSE (150 degrees) at 20 MPH (17 KT):0
Visibility: 10 mile(s):0
Sky conditions: clear
Temperature: 79.0 F (26.1 C)
Dew Point: 73.9 F (23.3 C)
Relative Humidity: 84%
Pressure (altimeter): 29.88 in. Hg (1011 hPa)
ob: KEYW 190753Z AUTO 15017KT 10SM CLR 26/23 A2988 RMK AO2 SLP118 T02610233
cycle: 8

Station Type Date Time Source
KEYW TAF 2019/04/19 06:33 UTC NOAA

TAF KEYW 190530Z 1906/2006 17014G21KT P6SM FEW020 SCT050
FM192200 22017G24KT P6SM VCTS SCT025CB BKN050
TEMPO 1923/2003 2SM +SHRA BKN020

Example: see airport list